sensor_id;sensor_type;location;lat;lon;timestamp;P1;durP1;ratioP1;P2;durP2;ratioP2
77598;SDS011;66758;52.078;5.070;2023-07-29T00:01:20;3.50;;;1.13;;
77598;SDS011;66758;52.078;5.070;2023-07-29T00:03:47;3.70;;;1.35;;
77598;SDS011;66758;52.078;5.070;2023-07-29T00:06:12;2.40;;;1.33;;
77598;SDS011;66758;52.078;5.070;2023-07-29T00:08:38;2.60;;;1.20;;
77598;SDS011;66758;52.078;5.070;2023-07-29T00:11:03;3.93;;;1.23;;
77598;SDS011;66758;52.078;5.070;2023-07-29T00:13:29;3.13;;;1.00;;
77598;SDS011;66758;52.078;5.070;2023-07-29T00:15:54;4.65;;;1.42;;
77598;SDS011;66758;52.078;5.070;2023-07-29T00:18:21;4.43;;;1.10;;
77598;SDS011;66758;52.078;5.070;2023-07-29T00:20:47;4.70;;;1.30;;
77598;SDS011;66758;52.078;5.070;2023-07-29T00:23:12;3.37;;;1.50;;
77598;SDS011;66758;52.078;5.070;2023-07-29T00:25:38;4.65;;;1.25;;
77598;SDS011;66758;52.078;5.070;2023-07-29T00:28:03;3.10;;;1.27;;
77598;SDS011;66758;52.078;5.070;2023-07-29T00:30:29;4.90;;;1.33;;
77598;SDS011;66758;52.078;5.070;2023-07-29T00:32:54;3.53;;;1.55;;
77598;SDS011;66758;52.078;5.070;2023-07-29T00:35:20;4.10;;;1.70;;
77598;SDS011;66758;52.078;5.070;2023-07-29T00:37:45;4.03;;;1.40;;
77598;SDS011;66758;52.078;5.070;2023-07-29T00:40:20;5.87;;;1.50;;
77598;SDS011;66758;52.078;5.070;2023-07-29T00:42:47;4.47;;;1.92;;
77598;SDS011;66758;52.078;5.070;2023-07-29T00:45:13;4.82;;;1.90;;
77598;SDS011;66758;52.078;5.070;2023-07-29T00:47:38;4.93;;;1.97;;
77598;SDS011;66758;52.078;5.070;2023-07-29T00:50:05;5.60;;;1.73;;
77598;SDS011;66758;52.078;5.070;2023-07-29T00:52:31;6.15;;;2.10;;
77598;SDS011;66758;52.078;5.070;2023-07-29T00:54:57;4.07;;;1.90;;
77598;SDS011;66758;52.078;5.070;2023-07-29T00:57:23;4.77;;;2.13;;
77598;SDS011;66758;52.078;5.070;2023-07-29T00:59:50;5.35;;;2.20;;
77598;SDS011;66758;52.078;5.070;2023-07-29T01:02:16;6.47;;;2.50;;
77598;SDS011;66758;52.078;5.070;2023-07-29T01:04:42;6.43;;;2.23;;
77598;SDS011;66758;52.078;5.070;2023-07-29T01:07:14;4.97;;;1.97;;
77598;SDS011;66758;52.078;5.070;2023-07-29T01:10:03;6.03;;;2.50;;
77598;SDS011;66758;52.078;5.070;2023-07-29T01:12:37;7.50;;;2.55;;
77598;SDS011;66758;52.078;5.070;2023-07-29T01:15:17;6.22;;;2.38;;
77598;SDS011;66758;52.078;5.070;2023-07-29T01:17:48;6.73;;;2.20;;
77598;SDS011;66758;52.078;5.070;2023-07-29T01:20:17;5.15;;;2.67;;
77598;SDS011;66758;52.078;5.070;2023-07-29T01:22:45;12.68;;;2.90;;
77598;SDS011;66758;52.078;5.070;2023-07-29T01:25:12;6.50;;;2.50;;
77598;SDS011;66758;52.078;5.070;2023-07-29T01:27:38;5.22;;;2.55;;
77598;SDS011;66758;52.078;5.070;2023-07-29T01:30:06;4.77;;;2.23;;
77598;SDS011;66758;52.078;5.070;2023-07-29T01:32:37;7.70;;;2.67;;
77598;SDS011;66758;52.078;5.070;2023-07-29T01:37:37;8.40;;;2.60;;
77598;SDS011;66758;52.078;5.070;2023-07-29T01:40:05;5.97;;;3.03;;
77598;SDS011;66758;52.078;5.070;2023-07-29T01:42:32;7.45;;;2.85;;
77598;SDS011;66758;52.078;5.070;2023-07-29T01:44:59;8.32;;;3.17;;
77598;SDS011;66758;52.078;5.070;2023-07-29T01:47:25;8.27;;;2.87;;
77598;SDS011;66758;52.078;5.070;2023-07-29T01:49:50;7.28;;;3.22;;
77598;SDS011;66758;52.078;5.070;2023-07-29T01:52:16;6.90;;;3.40;;
77598;SDS011;66758;52.078;5.070;2023-07-29T01:54:42;8.57;;;3.38;;
77598;SDS011;66758;52.078;5.070;2023-07-29T01:57:07;9.17;;;3.97;;
77598;SDS011;66758;52.078;5.070;2023-07-29T01:59:32;7.77;;;3.40;;
77598;SDS011;66758;52.078;5.070;2023-07-29T02:01:58;9.33;;;3.37;;
77598;SDS011;66758;52.078;5.070;2023-07-29T02:04:23;6.70;;;2.80;;
77598;SDS011;66758;52.078;5.070;2023-07-29T02:06:48;10.17;;;3.87;;
77598;SDS011;66758;52.078;5.070;2023-07-29T02:09:14;10.93;;;3.80;;
77598;SDS011;66758;52.078;5.070;2023-07-29T02:11:39;8.47;;;3.00;;
77598;SDS011;66758;52.078;5.070;2023-07-29T02:14:05;9.17;;;4.20;;
77598;SDS011;66758;52.078;5.070;2023-07-29T02:16:31;7.53;;;3.37;;
77598;SDS011;66758;52.078;5.070;2023-07-29T02:18:59;7.40;;;3.40;;
77598;SDS011;66758;52.078;5.070;2023-07-29T02:21:24;9.67;;;3.50;;
77598;SDS011;66758;52.078;5.070;2023-07-29T02:23:50;6.00;;;2.90;;
77598;SDS011;66758;52.078;5.070;2023-07-29T02:26:16;8.27;;;4.00;;
77598;SDS011;66758;52.078;5.070;2023-07-29T02:28:41;6.95;;;3.03;;
77598;SDS011;66758;52.078;5.070;2023-07-29T02:31:17;8.87;;;3.90;;
77598;SDS011;66758;52.078;5.070;2023-07-29T02:33:45;6.25;;;3.22;;
77598;SDS011;66758;52.078;5.070;2023-07-29T02:36:11;8.70;;;3.40;;
77598;SDS011;66758;52.078;5.070;2023-07-29T02:38:37;5.72;;;3.22;;
77598;SDS011;66758;52.078;5.070;2023-07-29T02:41:03;5.30;;;3.25;;
77598;SDS011;66758;52.078;5.070;2023-07-29T02:43:28;6.07;;;3.30;;
77598;SDS011;66758;52.078;5.070;2023-07-29T02:45:54;8.53;;;2.70;;
77598;SDS011;66758;52.078;5.070;2023-07-29T02:48:19;5.77;;;2.63;;
77598;SDS011;66758;52.078;5.070;2023-07-29T02:50:45;5.13;;;2.60;;
77598;SDS011;66758;52.078;5.070;2023-07-29T02:53:10;5.00;;;2.58;;
77598;SDS011;66758;52.078;5.070;2023-07-29T02:55:39;5.77;;;3.13;;
77598;SDS011;66758;52.078;5.070;2023-07-29T02:58:05;4.35;;;2.25;;
77598;SDS011;66758;52.078;5.070;2023-07-29T03:00:31;5.80;;;2.23;;
77598;SDS011;66758;52.078;5.070;2023-07-29T03:02:58;5.03;;;2.47;;
77598;SDS011;66758;52.078;5.070;2023-07-29T03:05:23;4.63;;;2.00;;
77598;SDS011;66758;52.078;5.070;2023-07-29T03:07:49;5.37;;;2.50;;
77598;SDS011;66758;52.078;5.070;2023-07-29T03:10:14;6.53;;;2.50;;
77598;SDS011;66758;52.078;5.070;2023-07-29T03:12:40;5.30;;;2.00;;
77598;SDS011;66758;52.078;5.070;2023-07-29T03:15:05;6.27;;;2.70;;
77598;SDS011;66758;52.078;5.070;2023-07-29T03:17:31;5.55;;;2.40;;
77598;SDS011;66758;52.078;5.070;2023-07-29T03:19:57;4.23;;;2.53;;
77598;SDS011;66758;52.078;5.070;2023-07-29T03:22:22;4.05;;;2.28;;
77598;SDS011;66758;52.078;5.070;2023-07-29T03:24:48;5.60;;;2.17;;
77598;SDS011;66758;52.078;5.070;2023-07-29T03:27:13;4.87;;;2.00;;
77598;SDS011;66758;52.078;5.070;2023-07-29T03:29:40;5.10;;;2.45;;
77598;SDS011;66758;52.078;5.070;2023-07-29T03:32:06;4.57;;;2.10;;
77598;SDS011;66758;52.078;5.070;2023-07-29T03:34:32;4.75;;;2.35;;
77598;SDS011;66758;52.078;5.070;2023-07-29T03:36:57;4.90;;;2.60;;
77598;SDS011;66758;52.078;5.070;2023-07-29T03:39:23;5.90;;;2.38;;
77598;SDS011;66758;52.078;5.070;2023-07-29T03:41:49;6.17;;;2.37;;
77598;SDS011;66758;52.078;5.070;2023-07-29T03:44:14;4.30;;;2.33;;
77598;SDS011;66758;52.078;5.070;2023-07-29T03:46:40;4.60;;;2.13;;
77598;SDS011;66758;52.078;5.070;2023-07-29T03:49:05;4.50;;;1.67;;
77598;SDS011;66758;52.078;5.070;2023-07-29T03:51:32;4.37;;;1.97;;
77598;SDS011;66758;52.078;5.070;2023-07-29T03:53:57;5.95;;;2.22;;
77598;SDS011;66758;52.078;5.070;2023-07-29T03:56:23;5.33;;;2.20;;
77598;SDS011;66758;52.078;5.070;2023-07-29T03:58:48;5.43;;;2.57;;
77598;SDS011;66758;52.078;5.070;2023-07-29T04:01:14;4.45;;;2.22;;
77598;SDS011;66758;52.078;5.070;2023-07-29T04:03:40;4.27;;;2.27;;
77598;SDS011;66758;52.078;5.070;2023-07-29T04:06:05;5.32;;;2.50;;
77598;SDS011;66758;52.078;5.070;2023-07-29T04:08:30;5.53;;;2.50;;
77598;SDS011;66758;52.078;5.070;2023-07-29T04:10:56;4.57;;;2.30;;
77598;SDS011;66758;52.078;5.070;2023-07-29T04:13:21;5.72;;;1.90;;
77598;SDS011;66758;52.078;5.070;2023-07-29T04:15:47;4.80;;;2.43;;
77598;SDS011;66758;52.078;5.070;2023-07-29T04:18:12;7.00;;;2.33;;
77598;SDS011;66758;52.078;5.070;2023-07-29T04:20:38;4.13;;;1.87;;
77598;SDS011;66758;52.078;5.070;2023-07-29T04:23:03;5.38;;;2.58;;
77598;SDS011;66758;52.078;5.070;2023-07-29T04:25:29;4.80;;;1.90;;
77598;SDS011;66758;52.078;5.070;2023-07-29T04:27:54;4.83;;;2.50;;
77598;SDS011;66758;52.078;5.070;2023-07-29T04:30:20;4.88;;;2.13;;
77598;SDS011;66758;52.078;5.070;2023-07-29T04:32:46;5.40;;;2.13;;
77598;SDS011;66758;52.078;5.070;2023-07-29T04:35:14;4.95;;;2.30;;
77598;SDS011;66758;52.078;5.070;2023-07-29T04:37:39;4.33;;;2.20;;
77598;SDS011;66758;52.078;5.070;2023-07-29T04:40:05;5.47;;;2.08;;
77598;SDS011;66758;52.078;5.070;2023-07-29T04:42:31;6.53;;;2.30;;
77598;SDS011;66758;52.078;5.070;2023-07-29T04:44:57;4.70;;;2.20;;
77598;SDS011;66758;52.078;5.070;2023-07-29T04:47:22;4.88;;;2.40;;
77598;SDS011;66758;52.078;5.070;2023-07-29T04:49:48;7.10;;;2.30;;
77598;SDS011;66758;52.078;5.070;2023-07-29T04:52:13;6.53;;;2.03;;
77598;SDS011;66758;52.078;5.070;2023-07-29T04:54:40;6.18;;;2.40;;
77598;SDS011;66758;52.078;5.070;2023-07-29T04:57:06;5.10;;;2.50;;
77598;SDS011;66758;52.078;5.070;2023-07-29T04:59:31;5.83;;;2.47;;
77598;SDS011;66758;52.078;5.070;2023-07-29T05:01:57;5.20;;;2.53;;
77598;SDS011;66758;52.078;5.070;2023-07-29T05:04:23;5.90;;;2.30;;
77598;SDS011;66758;52.078;5.070;2023-07-29T05:06:48;5.78;;;2.63;;
77598;SDS011;66758;52.078;5.070;2023-07-29T05:09:14;4.77;;;2.00;;
77598;SDS011;66758;52.078;5.070;2023-07-29T05:11:41;4.72;;;2.40;;
77598;SDS011;66758;52.078;5.070;2023-07-29T05:14:07;4.63;;;2.40;;
77598;SDS011;66758;52.078;5.070;2023-07-29T05:16:34;6.17;;;2.90;;
77598;SDS011;66758;52.078;5.070;2023-07-29T05:18:59;5.43;;;2.47;;
77598;SDS011;66758;52.078;5.070;2023-07-29T05:21:25;6.43;;;2.77;;
77598;SDS011;66758;52.078;5.070;2023-07-29T05:23:50;8.43;;;3.03;;
77598;SDS011;66758;52.078;5.070;2023-07-29T05:26:15;6.13;;;2.50;;
77598;SDS011;66758;52.078;5.070;2023-07-29T05:28:41;6.55;;;3.03;;
77598;SDS011;66758;52.078;5.070;2023-07-29T05:31:06;6.90;;;2.90;;
77598;SDS011;66758;52.078;5.070;2023-07-29T05:33:32;5.67;;;2.73;;
77598;SDS011;66758;52.078;5.070;2023-07-29T05:35:57;7.33;;;3.30;;
77598;SDS011;66758;52.078;5.070;2023-07-29T05:38:23;7.07;;;3.35;;
77598;SDS011;66758;52.078;5.070;2023-07-29T05:40:48;7.67;;;3.03;;
77598;SDS011;66758;52.078;5.070;2023-07-29T05:43:14;8.17;;;3.63;;
77598;SDS011;66758;52.078;5.070;2023-07-29T05:45:39;7.73;;;3.27;;
77598;SDS011;66758;52.078;5.070;2023-07-29T05:48:05;6.00;;;3.40;;
77598;SDS011;66758;52.078;5.070;2023-07-29T05:50:30;6.30;;;3.30;;
77598;SDS011;66758;52.078;5.070;2023-07-29T05:52:56;6.47;;;3.10;;
77598;SDS011;66758;52.078;5.070;2023-07-29T05:55:21;5.83;;;3.30;;
77598;SDS011;66758;52.078;5.070;2023-07-29T05:57:47;7.35;;;3.35;;
77598;SDS011;66758;52.078;5.070;2023-07-29T06:00:12;8.10;;;3.67;;
77598;SDS011;66758;52.078;5.070;2023-07-29T06:02:38;9.07;;;3.53;;
77598;SDS011;66758;52.078;5.070;2023-07-29T06:05:06;7.88;;;3.58;;
77598;SDS011;66758;52.078;5.070;2023-07-29T06:07:32;8.32;;;3.47;;
77598;SDS011;66758;52.078;5.070;2023-07-29T06:09:58;12.52;;;4.05;;
77598;SDS011;66758;52.078;5.070;2023-07-29T06:12:24;8.43;;;3.63;;
77598;SDS011;66758;52.078;5.070;2023-07-29T06:14:50;6.63;;;3.43;;
77598;SDS011;66758;52.078;5.070;2023-07-29T06:17:15;7.10;;;3.63;;
77598;SDS011;66758;52.078;5.070;2023-07-29T06:19:40;8.47;;;3.63;;
77598;SDS011;66758;52.078;5.070;2023-07-29T06:22:06;9.47;;;3.50;;
77598;SDS011;66758;52.078;5.070;2023-07-29T06:24:31;8.37;;;3.97;;
77598;SDS011;66758;52.078;5.070;2023-07-29T06:26:57;8.57;;;3.47;;
77598;SDS011;66758;52.078;5.070;2023-07-29T06:29:23;7.38;;;4.43;;
77598;SDS011;66758;52.078;5.070;2023-07-29T06:31:48;6.80;;;3.90;;
77598;SDS011;66758;52.078;5.070;2023-07-29T06:34:16;8.15;;;3.72;;
77598;SDS011;66758;52.078;5.070;2023-07-29T06:36:42;8.30;;;3.87;;
77598;SDS011;66758;52.078;5.070;2023-07-29T06:39:07;8.82;;;3.95;;
77598;SDS011;66758;52.078;5.070;2023-07-29T06:41:32;9.87;;;4.37;;
77598;SDS011;66758;52.078;5.070;2023-07-29T06:43:58;8.57;;;3.97;;
77598;SDS011;66758;52.078;5.070;2023-07-29T06:46:23;7.30;;;4.25;;
77598;SDS011;66758;52.078;5.070;2023-07-29T06:48:49;6.83;;;3.70;;
77598;SDS011;66758;52.078;5.070;2023-07-29T06:51:14;6.03;;;3.80;;
77598;SDS011;66758;52.078;5.070;2023-07-29T06:53:40;9.40;;;3.37;;
77598;SDS011;66758;52.078;5.070;2023-07-29T06:56:05;6.73;;;3.60;;
77598;SDS011;66758;52.078;5.070;2023-07-29T06:58:31;7.70;;;4.00;;
77598;SDS011;66758;52.078;5.070;2023-07-29T07:00:56;7.93;;;3.80;;
77598;SDS011;66758;52.078;5.070;2023-07-29T07:03:22;7.07;;;3.65;;
77598;SDS011;66758;52.078;5.070;2023-07-29T07:05:47;7.73;;;4.00;;
77598;SDS011;66758;52.078;5.070;2023-07-29T07:08:12;6.87;;;3.60;;
77598;SDS011;66758;52.078;5.070;2023-07-29T07:10:38;6.63;;;4.07;;
77598;SDS011;66758;52.078;5.070;2023-07-29T07:13:03;9.60;;;4.53;;
77598;SDS011;66758;52.078;5.070;2023-07-29T07:15:29;5.90;;;3.60;;
77598;SDS011;66758;52.078;5.070;2023-07-29T07:17:54;9.07;;;3.50;;
77598;SDS011;66758;52.078;5.070;2023-07-29T07:20:20;5.37;;;3.77;;
77598;SDS011;66758;52.078;5.070;2023-07-29T07:22:45;6.47;;;4.00;;
77598;SDS011;66758;52.078;5.070;2023-07-29T07:25:10;7.75;;;3.97;;
77598;SDS011;66758;52.078;5.070;2023-07-29T07:27:36;5.47;;;3.77;;
77598;SDS011;66758;52.078;5.070;2023-07-29T07:30:02;7.30;;;4.20;;
77598;SDS011;66758;52.078;5.070;2023-07-29T07:32:28;8.02;;;4.05;;
77598;SDS011;66758;52.078;5.070;2023-07-29T07:34:53;7.33;;;4.33;;
77598;SDS011;66758;52.078;5.070;2023-07-29T07:37:19;4.90;;;4.20;;
77598;SDS011;66758;52.078;5.070;2023-07-29T07:39:44;6.35;;;3.90;;
77598;SDS011;66758;52.078;5.070;2023-07-29T07:42:10;6.33;;;5.27;;
77598;SDS011;66758;52.078;5.070;2023-07-29T07:44:36;6.93;;;4.37;;
77598;SDS011;66758;52.078;5.070;2023-07-29T07:47:01;6.43;;;3.95;;
77598;SDS011;66758;52.078;5.070;2023-07-29T07:49:26;6.47;;;3.97;;
77598;SDS011;66758;52.078;5.070;2023-07-29T07:51:52;4.67;;;3.77;;
77598;SDS011;66758;52.078;5.070;2023-07-29T07:54:17;6.30;;;3.50;;
77598;SDS011;66758;52.078;5.070;2023-07-29T07:56:43;4.90;;;3.05;;
77598;SDS011;66758;52.078;5.070;2023-07-29T07:59:08;6.43;;;3.87;;
77598;SDS011;66758;52.078;5.070;2023-07-29T08:01:35;5.22;;;3.20;;
77598;SDS011;66758;52.078;5.070;2023-07-29T08:04:01;4.63;;;3.13;;
77598;SDS011;66758;52.078;5.070;2023-07-29T08:06:27;8.55;;;6.18;;
77598;SDS011;66758;52.078;5.070;2023-07-29T08:08:52;6.17;;;3.33;;
77598;SDS011;66758;52.078;5.070;2023-07-29T08:11:19;5.10;;;3.20;;
77598;SDS011;66758;52.078;5.070;2023-07-29T08:13:45;5.88;;;3.25;;
77598;SDS011;66758;52.078;5.070;2023-07-29T08:16:10;4.77;;;3.20;;
77598;SDS011;66758;52.078;5.070;2023-07-29T08:18:37;6.70;;;3.75;;
77598;SDS011;66758;52.078;5.070;2023-07-29T08:21:02;5.30;;;3.23;;
77598;SDS011;66758;52.078;5.070;2023-07-29T08:23:28;6.93;;;4.25;;
77598;SDS011;66758;52.078;5.070;2023-07-29T08:25:56;6.80;;;4.17;;
77598;SDS011;66758;52.078;5.070;2023-07-29T08:28:26;6.78;;;3.25;;
77598;SDS011;66758;52.078;5.070;2023-07-29T08:30:53;5.65;;;3.20;;
77598;SDS011;66758;52.078;5.070;2023-07-29T08:33:18;5.20;;;3.03;;
77598;SDS011;66758;52.078;5.070;2023-07-29T08:35:44;4.25;;;3.25;;
77598;SDS011;66758;52.078;5.070;2023-07-29T08:38:09;5.13;;;3.23;;
77598;SDS011;66758;52.078;5.070;2023-07-29T08:40:42;7.80;;;3.70;;
77598;SDS011;66758;52.078;5.070;2023-07-29T08:43:15;6.18;;;4.05;;
77598;SDS011;66758;52.078;5.070;2023-07-29T08:45:44;5.60;;;4.93;;
77598;SDS011;66758;52.078;5.070;2023-07-29T08:48:10;7.63;;;4.43;;
77598;SDS011;66758;52.078;5.070;2023-07-29T08:50:36;5.60;;;4.40;;
77598;SDS011;66758;52.078;5.070;2023-07-29T08:53:05;8.93;;;4.43;;
77598;SDS011;66758;52.078;5.070;2023-07-29T08:55:32;7.75;;;4.40;;
77598;SDS011;66758;52.078;5.070;2023-07-29T08:57:59;5.70;;;3.75;;
77598;SDS011;66758;52.078;5.070;2023-07-29T09:00:25;7.73;;;4.37;;
77598;SDS011;66758;52.078;5.070;2023-07-29T09:02:51;6.38;;;3.58;;
77598;SDS011;66758;52.078;5.070;2023-07-29T09:05:16;4.70;;;3.27;;
77598;SDS011;66758;52.078;5.070;2023-07-29T09:07:41;6.93;;;3.60;;
77598;SDS011;66758;52.078;5.070;2023-07-29T09:10:09;5.93;;;3.70;;
77598;SDS011;66758;52.078;5.070;2023-07-29T09:12:38;6.47;;;3.53;;
77598;SDS011;66758;52.078;5.070;2023-07-29T09:15:05;7.85;;;3.78;;
77598;SDS011;66758;52.078;5.070;2023-07-29T09:17:32;5.50;;;3.58;;
77598;SDS011;66758;52.078;5.070;2023-07-29T09:19:58;5.05;;;3.65;;
77598;SDS011;66758;52.078;5.070;2023-07-29T09:22:23;6.67;;;4.03;;
77598;SDS011;66758;52.078;5.070;2023-07-29T09:24:50;7.25;;;4.28;;
77598;SDS011;66758;52.078;5.070;2023-07-29T09:27:23;8.73;;;4.60;;
77598;SDS011;66758;52.078;5.070;2023-07-29T09:29:49;7.15;;;4.90;;
77598;SDS011;66758;52.078;5.070;2023-07-29T09:32:21;8.90;;;5.33;;
77598;SDS011;66758;52.078;5.070;2023-07-29T09:34:47;9.48;;;6.15;;
77598;SDS011;66758;52.078;5.070;2023-07-29T09:37:17;9.60;;;6.53;;
77598;SDS011;66758;52.078;5.070;2023-07-29T09:39:46;9.15;;;6.20;;
77598;SDS011;66758;52.078;5.070;2023-07-29T09:42:17;9.75;;;5.30;;
77598;SDS011;66758;52.078;5.070;2023-07-29T09:44:46;6.57;;;5.73;;
77598;SDS011;66758;52.078;5.070;2023-07-29T09:47:23;8.40;;;5.70;;
77598;SDS011;66758;52.078;5.070;2023-07-29T09:49:50;6.85;;;6.13;;
77598;SDS011;66758;52.078;5.070;2023-07-29T09:52:17;10.50;;;5.07;;
77598;SDS011;66758;52.078;5.070;2023-07-29T09:54:44;7.95;;;4.85;;
77598;SDS011;66758;52.078;5.070;2023-07-29T09:57:13;12.97;;;5.17;;
77598;SDS011;66758;52.078;5.070;2023-07-29T09:59:39;8.48;;;4.80;;
77598;SDS011;66758;52.078;5.070;2023-07-29T10:02:07;9.05;;;5.03;;
77598;SDS011;66758;52.078;5.070;2023-07-29T10:04:38;10.27;;;5.38;;
77598;SDS011;66758;52.078;5.070;2023-07-29T10:07:05;10.03;;;5.70;;
77598;SDS011;66758;52.078;5.070;2023-07-29T10:09:32;8.65;;;5.82;;
77598;SDS011;66758;52.078;5.070;2023-07-29T10:11:59;9.98;;;5.55;;
77598;SDS011;66758;52.078;5.070;2023-07-29T10:14:27;10.82;;;6.82;;
77598;SDS011;66758;52.078;5.070;2023-07-29T10:16:54;9.35;;;6.75;;
77598;SDS011;66758;52.078;5.070;2023-07-29T10:19:21;9.10;;;6.50;;
77598;SDS011;66758;52.078;5.070;2023-07-29T10:21:48;11.10;;;6.53;;
77598;SDS011;66758;52.078;5.070;2023-07-29T10:24:15;7.95;;;6.72;;
77598;SDS011;66758;52.078;5.070;2023-07-29T10:26:46;8.90;;;6.18;;
77598;SDS011;66758;52.078;5.070;2023-07-29T10:29:14;10.48;;;5.75;;
77598;SDS011;66758;52.078;5.070;2023-07-29T10:31:47;10.03;;;5.53;;
77598;SDS011;66758;52.078;5.070;2023-07-29T10:34:13;7.75;;;4.78;;
77598;SDS011;66758;52.078;5.070;2023-07-29T10:36:39;6.47;;;4.00;;
77598;SDS011;66758;52.078;5.070;2023-07-29T10:39:07;7.57;;;4.90;;
77598;SDS011;66758;52.078;5.070;2023-07-29T10:47:10;4.57;;;3.28;;
77598;SDS011;66758;52.078;5.070;2023-07-29T10:49:39;5.43;;;2.63;;
77598;SDS011;66758;52.078;5.070;2023-07-29T10:52:05;4.15;;;2.25;;
77598;SDS011;66758;52.078;5.070;2023-07-29T10:54:31;2.90;;;1.87;;
77598;SDS011;66758;52.078;5.070;2023-07-29T10:57:16;5.45;;;2.20;;
77598;SDS011;66758;52.078;5.070;2023-07-29T10:59:56;3.05;;;1.90;;
77598;SDS011;66758;52.078;5.070;2023-07-29T11:02:28;2.80;;;1.52;;
77598;SDS011;66758;52.078;5.070;2023-07-29T11:04:56;3.90;;;1.48;;
77598;SDS011;66758;52.078;5.070;2023-07-29T11:07:26;2.10;;;1.27;;
77598;SDS011;66758;52.078;5.070;2023-07-29T11:09:53;2.92;;;1.35;;
77598;SDS011;66758;52.078;5.070;2023-07-29T11:17:41;3.38;;;1.42;;
77598;SDS011;66758;52.078;5.070;2023-07-29T11:20:11;3.30;;;1.87;;
77598;SDS011;66758;52.078;5.070;2023-07-29T11:22:38;5.05;;;1.70;;
77598;SDS011;66758;52.078;5.070;2023-07-29T11:25:04;3.78;;;1.60;;
77598;SDS011;66758;52.078;5.070;2023-07-29T11:27:33;3.20;;;1.88;;
77598;SDS011;66758;52.078;5.070;2023-07-29T11:30:03;2.93;;;1.73;;
77598;SDS011;66758;52.078;5.070;2023-07-29T11:32:37;3.38;;;2.10;;
77598;SDS011;66758;52.078;5.070;2023-07-29T11:37:29;5.00;;;2.27;;
77598;SDS011;66758;52.078;5.070;2023-07-29T11:39:55;4.68;;;2.08;;
77598;SDS011;66758;52.078;5.070;2023-07-29T11:42:21;4.10;;;2.53;;
77598;SDS011;66758;52.078;5.070;2023-07-29T11:44:46;4.15;;;2.20;;
77598;SDS011;66758;52.078;5.070;2023-07-29T11:47:12;4.27;;;2.67;;
77598;SDS011;66758;52.078;5.070;2023-07-29T11:49:39;4.13;;;2.72;;
77598;SDS011;66758;52.078;5.070;2023-07-29T11:52:07;3.35;;;2.13;;
77598;SDS011;66758;52.078;5.070;2023-07-29T11:54:37;4.10;;;2.27;;
77598;SDS011;66758;52.078;5.070;2023-07-29T11:57:07;3.78;;;2.13;;
77598;SDS011;66758;52.078;5.070;2023-07-29T11:59:34;4.05;;;2.13;;
77598;SDS011;66758;52.078;5.070;2023-07-29T12:02:01;4.05;;;2.33;;
77598;SDS011;66758;52.078;5.070;2023-07-29T12:04:35;2.97;;;1.90;;
77598;SDS011;66758;52.078;5.070;2023-07-29T12:07:02;4.83;;;2.50;;
77598;SDS011;66758;52.078;5.070;2023-07-29T12:09:28;3.40;;;1.77;;
77598;SDS011;66758;52.078;5.070;2023-07-29T12:11:55;4.53;;;2.35;;
77598;SDS011;66758;52.078;5.070;2023-07-29T12:14:20;3.10;;;2.20;;
77598;SDS011;66758;52.078;5.070;2023-07-29T12:16:47;3.37;;;2.33;;
77598;SDS011;66758;52.078;5.070;2023-07-29T12:19:14;5.00;;;2.38;;
77598;SDS011;66758;52.078;5.070;2023-07-29T12:21:43;4.83;;;2.50;;
77598;SDS011;66758;52.078;5.070;2023-07-29T12:24:09;3.22;;;2.05;;
77598;SDS011;66758;52.078;5.070;2023-07-29T12:26:36;2.63;;;2.13;;
77598;SDS011;66758;52.078;5.070;2023-07-29T12:29:15;2.93;;;2.00;;
77598;SDS011;66758;52.078;5.070;2023-07-29T12:31:42;3.83;;;2.30;;
77598;SDS011;66758;52.078;5.070;2023-07-29T12:34:09;3.17;;;2.23;;
77598;SDS011;66758;52.078;5.070;2023-07-29T12:36:44;3.35;;;2.25;;
77598;SDS011;66758;52.078;5.070;2023-07-29T12:39:27;3.22;;;2.20;;
77598;SDS011;66758;52.078;5.070;2023-07-29T12:42:06;3.33;;;2.30;;
77598;SDS011;66758;52.078;5.070;2023-07-29T12:44:32;3.60;;;2.20;;
77598;SDS011;66758;52.078;5.070;2023-07-29T12:47:00;3.72;;;2.45;;
77598;SDS011;66758;52.078;5.070;2023-07-29T12:49:26;3.72;;;2.45;;
77598;SDS011;66758;52.078;5.070;2023-07-29T12:51:53;3.47;;;2.17;;
77598;SDS011;66758;52.078;5.070;2023-07-29T12:54:19;3.97;;;2.30;;
77598;SDS011;66758;52.078;5.070;2023-07-29T12:56:44;4.20;;;2.33;;
77598;SDS011;66758;52.078;5.070;2023-07-29T12:59:09;3.30;;;2.13;;
77598;SDS011;66758;52.078;5.070;2023-07-29T13:01:35;5.37;;;2.40;;
77598;SDS011;66758;52.078;5.070;2023-07-29T13:04:00;3.77;;;2.63;;
77598;SDS011;66758;52.078;5.070;2023-07-29T13:06:25;4.83;;;2.77;;
77598;SDS011;66758;52.078;5.070;2023-07-29T13:08:51;4.10;;;2.17;;
77598;SDS011;66758;52.078;5.070;2023-07-29T13:11:17;4.60;;;2.53;;
77598;SDS011;66758;52.078;5.070;2023-07-29T13:13:43;2.88;;;2.20;;
77598;SDS011;66758;52.078;5.070;2023-07-29T13:16:10;3.90;;;2.83;;
77598;SDS011;66758;52.078;5.070;2023-07-29T13:18:36;3.33;;;2.40;;
77598;SDS011;66758;52.078;5.070;2023-07-29T13:21:01;3.53;;;1.97;;
77598;SDS011;66758;52.078;5.070;2023-07-29T13:23:27;5.85;;;3.15;;
77598;SDS011;66758;52.078;5.070;2023-07-29T13:25:54;4.43;;;2.58;;
77598;SDS011;66758;52.078;5.070;2023-07-29T13:28:20;3.30;;;2.37;;
77598;SDS011;66758;52.078;5.070;2023-07-29T13:30:48;3.42;;;2.42;;
77598;SDS011;66758;52.078;5.070;2023-07-29T13:33:13;3.47;;;2.10;;
77598;SDS011;66758;52.078;5.070;2023-07-29T13:35:39;3.30;;;1.98;;
77598;SDS011;66758;52.078;5.070;2023-07-29T13:38:04;2.97;;;2.13;;
77598;SDS011;66758;52.078;5.070;2023-07-29T13:40:30;4.10;;;2.10;;
77598;SDS011;66758;52.078;5.070;2023-07-29T13:42:55;3.15;;;2.08;;
77598;SDS011;66758;52.078;5.070;2023-07-29T13:45:21;4.80;;;2.40;;
77598;SDS011;66758;52.078;5.070;2023-07-29T13:47:47;4.15;;;2.10;;
77598;SDS011;66758;52.078;5.070;2023-07-29T13:50:15;3.33;;;1.90;;
77598;SDS011;66758;52.078;5.070;2023-07-29T13:52:41;6.00;;;2.25;;
77598;SDS011;66758;52.078;5.070;2023-07-29T13:55:06;2.92;;;1.77;;
77598;SDS011;66758;52.078;5.070;2023-07-29T13:57:32;3.70;;;1.60;;
77598;SDS011;66758;52.078;5.070;2023-07-29T13:59:59;2.83;;;1.67;;
77598;SDS011;66758;52.078;5.070;2023-07-29T14:02:24;2.90;;;1.73;;
77598;SDS011;66758;52.078;5.070;2023-07-29T14:04:53;3.45;;;1.60;;
77598;SDS011;66758;52.078;5.070;2023-07-29T14:07:19;3.13;;;1.70;;
77598;SDS011;66758;52.078;5.070;2023-07-29T14:09:44;3.92;;;1.83;;
77598;SDS011;66758;52.078;5.070;2023-07-29T14:12:10;1.93;;;1.30;;
77598;SDS011;66758;52.078;5.070;2023-07-29T14:14:37;3.20;;;2.00;;
77598;SDS011;66758;52.078;5.070;2023-07-29T14:17:03;2.97;;;1.83;;
77598;SDS011;66758;52.078;5.070;2023-07-29T14:19:29;2.30;;;1.47;;
77598;SDS011;66758;52.078;5.070;2023-07-29T14:21:55;2.70;;;1.53;;
77598;SDS011;66758;52.078;5.070;2023-07-29T14:24:20;3.13;;;1.37;;
77598;SDS011;66758;52.078;5.070;2023-07-29T14:26:46;2.10;;;1.15;;
77598;SDS011;66758;52.078;5.070;2023-07-29T14:29:12;3.03;;;1.23;;
77598;SDS011;66758;52.078;5.070;2023-07-29T14:31:37;2.40;;;1.23;;
77598;SDS011;66758;52.078;5.070;2023-07-29T14:34:03;2.50;;;1.60;;
77598;SDS011;66758;52.078;5.070;2023-07-29T14:36:28;2.20;;;1.50;;
77598;SDS011;66758;52.078;5.070;2023-07-29T14:38:53;3.40;;;1.60;;
77598;SDS011;66758;52.078;5.070;2023-07-29T14:41:19;4.60;;;1.80;;
77598;SDS011;66758;52.078;5.070;2023-07-29T14:43:44;2.00;;;1.37;;
77598;SDS011;66758;52.078;5.070;2023-07-29T14:46:10;2.53;;;1.30;;
77598;SDS011;66758;52.078;5.070;2023-07-29T14:48:35;3.28;;;2.08;;
77598;SDS011;66758;52.078;5.070;2023-07-29T14:51:01;3.13;;;1.30;;
77598;SDS011;66758;52.078;5.070;2023-07-29T14:53:26;2.73;;;1.63;;
77598;SDS011;66758;52.078;5.070;2023-07-29T14:55:52;2.17;;;1.20;;
77598;SDS011;66758;52.078;5.070;2023-07-29T14:58:17;5.18;;;1.52;;
77598;SDS011;66758;52.078;5.070;2023-07-29T15:00:43;3.10;;;1.33;;